createdAt,value
2019-05-07T00:01:52.547Z,63.93
2019-05-07T00:06:57.883Z,64.35
2019-05-07T00:12:05.142Z,64.64
2019-05-07T00:17:10.419Z,64.70
2019-05-07T00:22:15.681Z,64.73
2019-05-07T00:27:22.629Z,64.74
2019-05-07T00:32:28.572Z,64.77
2019-05-07T00:37:43.137Z,64.44
2019-05-07T00:43:05.433Z,64.40
2019-05-07T00:48:12.603Z,64.40
2019-05-07T00:53:17.488Z,64.14
2019-05-07T00:58:26.458Z,64.27
2019-05-07T01:03:29.431Z,64.42
2019-05-07T01:08:34.645Z,64.42
2019-05-07T01:13:40.116Z,64.27
2019-05-07T01:18:45.463Z,64.46
2019-05-07T01:23:52.317Z,64.13
2019-05-07T01:29:02.867Z,64.49
2019-05-07T01:34:09.635Z,64.59
2019-05-07T01:39:14.891Z,64.86
2019-05-07T01:44:22.161Z,65.25
2019-05-07T01:49:27.256Z,65.37
2019-05-07T01:54:33.202Z,65.45
2019-05-07T01:59:38.720Z,65.20
2019-05-07T02:04:45.487Z,65.25
2019-05-07T02:10:04.460Z,65.35
2019-05-07T02:15:11.941Z,65.18
2019-05-07T02:20:17.829Z,65.46
2019-05-07T02:25:23.084Z,65.77
2019-05-07T02:30:29.686Z,66.00
2019-05-07T02:35:35.008Z,66.35
2019-05-07T02:40:43.317Z,66.42
2019-05-07T02:45:56.328Z,66.47
2019-05-07T02:51:06.073Z,66.65
2019-05-07T02:56:13.042Z,66.67
2019-05-07T03:01:18.492Z,66.81
2019-05-07T03:06:23.698Z,66.87
2019-05-07T03:11:28.988Z,67.14
2019-05-07T03:16:43.196Z,67.55
2019-05-07T03:21:53.935Z,67.85
2019-05-07T03:27:03.178Z,67.68
2019-05-07T03:32:28.557Z,67.57
2019-05-07T03:37:36.454Z,67.51
2019-05-07T03:42:44.008Z,67.60
2019-05-07T03:47:53.917Z,67.96
2019-05-07T03:52:57.475Z,67.91
2019-05-07T03:58:03.284Z,67.91
2019-05-07T04:03:08.663Z,67.87
2019-05-07T04:08:14.922Z,67.62
2019-05-07T04:13:23.533Z,67.53
2019-05-07T04:18:26.946Z,67.46
2019-05-07T04:23:34.288Z,67.38
2019-05-07T04:28:57.262Z,66.90
2019-05-07T04:34:04.309Z,66.55
2019-05-07T04:39:09.655Z,66.53
2019-05-07T04:44:15.019Z,66.37
2019-05-07T04:49:23.588Z,66.29
2019-05-07T04:54:27.267Z,65.89
2019-05-07T04:59:33.033Z,65.95
2019-05-07T05:04:38.706Z,65.62
2019-05-07T05:09:44.272Z,65.50
2019-05-07T05:14:49.382Z,64.80
2019-05-07T05:19:56.150Z,64.10
2019-05-07T05:25:14.928Z,63.51
2019-05-07T05:30:32.711Z,63.03
2019-05-07T05:35:38.619Z,62.01
2019-05-07T05:40:44.821Z,61.76
2019-05-07T05:45:53.038Z,60.72
2019-05-07T05:50:59.755Z,59.76
2019-05-07T05:56:12.812Z,58.79
2019-05-07T06:01:36.243Z,58.31
2019-05-07T06:06:46.201Z,56.58
2019-05-07T06:11:53.094Z,54.46
2019-05-07T06:17:16.167Z,54.67
2019-05-07T06:22:38.225Z,54.64
2019-05-07T06:27:43.466Z,54.34
2019-05-07T06:32:48.695Z,54.47
2019-05-07T06:37:53.912Z,53.35
2019-05-07T06:43:03.108Z,53.05
2019-05-07T06:48:07.994Z,52.53
2019-05-07T06:53:13.277Z,51.24
2019-05-07T06:58:18.617Z,50.35
2019-05-07T07:03:28.275Z,50.02
2019-05-07T07:08:35.162Z,49.53
2019-05-07T07:13:42.551Z,48.38
2019-05-07T07:18:52.069Z,48.67
2019-05-07T07:23:54.526Z,46.02
2019-05-07T07:29:01.948Z,45.77
2019-05-07T07:34:07.784Z,44.12
2019-05-07T07:39:12.938Z,44.10
2019-05-07T07:44:18.234Z,43.27
2019-05-07T07:49:23.869Z,43.57
2019-05-07T07:54:29.316Z,41.75
2019-05-07T07:59:39.142Z,42.15
2019-05-07T08:04:44.747Z,42.59
2019-05-07T08:09:51.898Z,42.66
2019-05-07T08:15:13.557Z,42.52
2019-05-07T08:20:07.296Z,43.51
2019-05-07T08:25:14.062Z,44.64
2019-05-07T08:30:22.414Z,43.37
2019-05-07T08:35:37.746Z,42.94
2019-05-07T08:40:43.196Z,41.56
2019-05-07T08:45:52.728Z,40.58
2019-05-07T08:50:58.176Z,39.82
2019-05-07T08:56:03.544Z,38.19
2019-05-07T09:01:08.903Z,39.28
2019-05-07T09:06:14.970Z,39.94
2019-05-07T09:11:22.939Z,38.99
2019-05-07T09:16:27.621Z,39.41
2019-05-07T09:21:35.255Z,39.68
2019-05-07T09:26:52.381Z,39.30
2019-05-07T09:32:15.244Z,38.23
2019-05-07T09:37:28.122Z,38.04
2019-05-07T09:42:33.630Z,38.04
2019-05-07T09:47:39.097Z,38.87
2019-05-07T09:52:44.566Z,38.53
2019-05-07T09:57:49.772Z,40.26
2019-05-07T10:02:56.745Z,41.16
2019-05-07T10:08:02.272Z,43.27
2019-05-07T10:13:25.861Z,45.71
2019-05-07T10:18:32.130Z,44.47
2019-05-07T10:23:38.006Z,44.51
2019-05-07T10:28:43.989Z,43.47
2019-05-07T10:33:49.410Z,40.88
2019-05-07T10:38:54.977Z,34.43
2019-05-07T10:44:02.422Z,34.21
2019-05-07T10:49:12.294Z,33.71
2019-05-07T10:54:18.869Z,31.52
2019-05-07T10:59:24.159Z,31.63
2019-05-07T11:04:40.304Z,32.89
2019-05-07T11:09:36.784Z,33.64
2019-05-07T11:14:42.041Z,35.14
2019-05-07T11:19:47.291Z,37.26
2019-05-07T11:24:52.503Z,38.57
2019-05-07T11:29:57.737Z,36.55
2019-05-07T11:35:05.446Z,35.81
2019-05-07T11:40:12.966Z,36.20
2019-05-07T11:45:19.722Z,37.11
2019-05-07T11:50:26.488Z,37.53
2019-05-07T11:55:31.687Z,34.86
2019-05-07T12:00:44.491Z,36.18
2019-05-07T12:05:49.790Z,38.92
2019-05-07T12:10:55.337Z,38.38
2019-05-07T12:16:02.687Z,36.39
2019-05-07T12:21:18.353Z,35.42
2019-05-07T12:26:15.096Z,36.13
2019-05-07T12:31:22.473Z,35.97
2019-05-07T12:36:28.178Z,36.72
2019-05-07T12:41:34.374Z,34.79
2019-05-07T12:46:42.112Z,32.62
2019-05-07T12:51:57.383Z,31.75
2019-05-07T12:57:02.693Z,33.06
2019-05-07T13:02:33.418Z,32.59
2019-05-07T13:07:24.319Z,31.37
2019-05-07T13:12:29.634Z,28.85
2019-05-07T13:17:34.861Z,29.14
2019-05-07T13:22:40.234Z,28.55
2019-05-07T13:27:46.134Z,27.33
2019-05-07T13:32:52.590Z,25.10
2019-05-07T13:38:05.284Z,25.41
2019-05-07T13:43:12.265Z,24.07
2019-05-07T13:48:22.361Z,24.54
2019-05-07T13:53:27.792Z,25.77
2019-05-07T13:58:33.105Z,26.60
2019-05-07T14:03:38.511Z,24.67
2019-05-07T14:08:45.588Z,24.04
2019-05-07T14:13:52.264Z,23.67
2019-05-07T14:18:58.206Z,23.64
2019-05-07T14:24:03.817Z,25.39
2019-05-07T14:29:09.207Z,24.33
2019-05-07T14:34:16.309Z,23.80
2019-05-07T14:39:22.026Z,22.85
2019-05-07T14:44:31.763Z,21.55
2019-05-07T14:49:37.346Z,22.58
2019-05-07T14:54:43.140Z,23.61
2019-05-07T14:59:48.496Z,23.80
2019-05-07T15:04:53.966Z,23.36
2019-05-07T15:09:59.367Z,22.86
2019-05-07T15:15:09.632Z,26.61
2019-05-07T15:20:15.671Z,28.29
2019-05-07T15:25:22.689Z,29.00
2019-05-07T15:30:32.474Z,25.32
2019-05-07T15:35:38.503Z,26.23
2019-05-07T15:40:43.910Z,25.19
2019-05-07T15:45:49.260Z,26.11
2019-05-07T15:50:54.614Z,26.79
2019-05-07T15:56:01.788Z,25.31
2019-05-07T16:01:08.461Z,27.82
2019-05-07T16:06:13.920Z,26.27
2019-05-07T16:11:23.226Z,24.69
2019-05-07T16:16:28.766Z,24.82
2019-05-07T16:21:33.868Z,27.32
2019-05-07T16:26:39.124Z,30.05
2019-05-07T16:31:44.827Z,30.48
2019-05-07T16:36:50.180Z,31.34
2019-05-07T16:41:55.479Z,31.75
2019-05-07T16:47:02.678Z,32.83
2019-05-07T16:52:07.715Z,33.34
2019-05-07T16:57:24.186Z,33.55
2019-05-07T17:02:32.126Z,33.54
2019-05-07T17:07:49.190Z,33.38
2019-05-07T17:12:54.485Z,33.57
2019-05-07T17:17:59.769Z,35.01
2019-05-07T17:23:05.480Z,34.53
2019-05-07T17:28:12.632Z,34.92
2019-05-07T17:33:18.131Z,36.15
2019-05-07T17:38:23.549Z,35.50
2019-05-07T17:43:28.950Z,35.91
2019-05-07T17:48:34.392Z,36.24
2019-05-07T17:53:40.056Z,36.71
2019-05-07T17:58:45.723Z,37.06
2019-05-07T18:03:52.312Z,37.29
2019-05-07T18:08:57.765Z,37.65
2019-05-07T18:14:02.944Z,37.91
2019-05-07T18:19:08.401Z,38.10
2019-05-07T18:24:16.845Z,38.40
2019-05-07T18:29:22.599Z,38.73
2019-05-07T18:34:28.448Z,39.14
2019-05-07T18:39:33.937Z,39.30
2019-05-07T18:44:41.594Z,39.67
2019-05-07T18:49:46.586Z,39.90
2019-05-07T18:54:52.117Z,40.54
2019-05-07T18:59:57.863Z,40.60
2019-05-07T19:05:03.332Z,40.83
2019-05-07T19:10:09.128Z,40.47
2019-05-07T19:15:15.098Z,40.47
2019-05-07T19:20:21.811Z,41.57
2019-05-07T19:25:27.469Z,41.57
2019-05-07T19:30:32.778Z,42.35
2019-05-07T19:35:41.857Z,44.90
2019-05-07T19:40:47.259Z,44.90
2019-05-07T19:45:52.723Z,46.53
2019-05-07T19:50:57.879Z,46.57
2019-05-07T19:56:05.064Z,47.41
2019-05-07T20:01:12.221Z,47.65
2019-05-07T20:06:18.219Z,47.73
2019-05-07T20:11:25.029Z,48.10
2019-05-07T20:16:32.400Z,48.27
2019-05-07T20:21:37.123Z,48.60
2019-05-07T20:26:43.207Z,48.91
2019-05-07T20:31:50.212Z,48.57
2019-05-07T20:36:55.581Z,48.68
2019-05-07T20:42:02.962Z,48.62
2019-05-07T20:47:07.813Z,48.76
2019-05-07T20:52:13.205Z,48.79
2019-05-07T20:57:22.402Z,49.32
2019-05-07T21:02:41.787Z,49.58
2019-05-07T21:07:34.743Z,49.92
2019-05-07T21:12:42.262Z,49.95
2019-05-07T21:17:47.023Z,50.06
2019-05-07T21:22:52.106Z,50.28
2019-05-07T21:27:57.454Z,50.98
2019-05-07T21:33:02.854Z,51.54
2019-05-07T21:38:08.235Z,51.63
2019-05-07T21:43:14.187Z,52.15
2019-05-07T21:48:22.127Z,52.20
2019-05-07T21:53:37.797Z,51.96
2019-05-07T21:58:53.868Z,52.43
2019-05-07T22:03:58.986Z,52.37
2019-05-07T22:09:07.205Z,52.90
2019-05-07T22:14:13.133Z,53.07
2019-05-07T22:19:18.609Z,53.43
2019-05-07T22:24:23.851Z,53.87
2019-05-07T22:29:29.012Z,53.43
2019-05-07T22:34:42.353Z,53.83
2019-05-07T22:39:49.575Z,53.77
2019-05-07T22:44:59.127Z,54.17
2019-05-07T22:50:05.267Z,53.95
2019-05-07T22:55:13.924Z,54.28
2019-05-07T23:00:22.715Z,54.30
2019-05-07T23:05:28.210Z,54.35
2019-05-07T23:10:33.758Z,54.68
2019-05-07T23:15:39.274Z,55.10
2019-05-07T23:20:45.242Z,55.17
2019-05-07T23:25:52.375Z,55.16
2019-05-07T23:30:57.698Z,55.01
2019-05-07T23:36:03.294Z,55.18
2019-05-07T23:41:12.769Z,55.65
2019-05-07T23:46:18.281Z,55.76
2019-05-07T23:51:23.789Z,55.76
2019-05-07T23:56:29.121Z,55.65
